createdAt,value
2022-12-13T00:01:39.623Z,73.71
2022-12-13T00:04:08.316Z,74.01
2022-12-13T00:06:35.636Z,73.99
2022-12-13T00:09:03.981Z,73.73
2022-12-13T00:11:30.801Z,72.79
2022-12-13T00:13:57.791Z,73.34
2022-12-13T00:16:26.213Z,73.07
2022-12-13T00:18:55.943Z,73.45
2022-12-13T00:21:28.602Z,73.25
2022-12-13T00:23:56.007Z,73.48
2022-12-13T00:26:28.444Z,73.95
2022-12-13T00:28:56.323Z,73.88
2022-12-13T00:31:56.718Z,74.21
2022-12-13T00:34:11.496Z,74.68
2022-12-13T00:36:38.613Z,74.32
2022-12-13T00:39:05.454Z,74.23
2022-12-13T00:41:35.344Z,74.68
2022-12-13T00:44:03.856Z,73.48
2022-12-13T00:46:31.458Z,74.52
2022-12-13T00:49:00.551Z,74.89
2022-12-13T00:51:30.051Z,74.83
2022-12-13T00:53:57.376Z,75.02
2022-12-13T00:56:27.253Z,75.44
2022-12-13T00:58:55.020Z,75.06
2022-12-13T01:01:27.490Z,75.46
2022-12-13T01:03:56.782Z,75.40
2022-12-13T01:06:31.251Z,74.65
2022-12-13T01:08:58.100Z,74.73
2022-12-13T01:11:25.171Z,75.02
2022-12-13T01:13:52.269Z,75.33
2022-12-13T01:16:19.830Z,75.60
2022-12-13T01:18:46.882Z,75.67
2022-12-13T01:21:16.463Z,74.95
2022-12-13T01:23:44.697Z,75.48
2022-12-13T01:26:18.034Z,75.38
2022-12-13T01:28:45.119Z,75.94
2022-12-13T01:31:15.307Z,75.77
2022-12-13T01:33:42.601Z,75.58
2022-12-13T01:36:18.724Z,76.16
2022-12-13T01:38:45.541Z,75.35
2022-12-13T01:41:21.396Z,75.43
2022-12-13T01:43:57.240Z,75.51
2022-12-13T01:46:24.511Z,75.54
2022-12-13T01:49:19.688Z,75.99
2022-12-13T01:52:06.049Z,76.06
2022-12-13T01:54:39.302Z,75.87
2022-12-13T01:57:17.219Z,76.01
2022-12-13T01:59:47.474Z,75.14
2022-12-13T02:02:15.230Z,76.26
2022-12-13T02:04:52.871Z,75.74
2022-12-13T02:07:24.061Z,76.08
2022-12-13T02:09:57.292Z,76.33
2022-12-13T02:12:29.780Z,77.25
2022-12-13T02:15:01.116Z,77.09
2022-12-13T02:17:45.479Z,77.26
2022-12-13T02:20:29.021Z,77.26
2022-12-13T02:23:34.725Z,77.23
2022-12-13T02:26:09.614Z,76.98
2022-12-13T02:29:02.585Z,76.79
2022-12-13T02:32:00.595Z,77.36
2022-12-13T02:34:38.754Z,77.19
2022-12-13T02:37:17.917Z,77.52
2022-12-13T02:40:00.927Z,77.71
2022-12-13T02:42:54.347Z,77.71
2022-12-13T02:45:38.108Z,78.04
2022-12-13T02:48:08.285Z,78.48
2022-12-13T02:50:36.753Z,78.24
2022-12-13T02:53:06.920Z,78.22
2022-12-13T02:55:33.811Z,78.92
2022-12-13T02:58:01.181Z,78.26
2022-12-13T03:00:55.666Z,78.70
2022-12-13T03:04:14.765Z,78.17
2022-12-13T03:07:01.042Z,77.73
2022-12-13T03:09:47.305Z,77.78
2022-12-13T03:12:20.087Z,77.67
2022-12-13T03:15:11.471Z,78.27
2022-12-13T03:17:46.048Z,78.59
2022-12-13T03:20:22.898Z,78.89
2022-12-13T03:22:51.899Z,78.77
2022-12-13T03:25:31.639Z,79.19
2022-12-13T03:28:01.013Z,79.05
2022-12-13T03:30:32.005Z,78.89
2022-12-13T03:32:59.496Z,78.25
2022-12-13T03:35:34.681Z,78.20
2022-12-13T03:38:22.502Z,78.29
2022-12-13T03:40:54.277Z,77.91
2022-12-13T03:43:22.975Z,78.78
2022-12-13T03:45:51.347Z,78.69
2022-12-13T03:48:22.552Z,79.45
2022-12-13T03:50:52.100Z,79.16
2022-12-13T03:53:22.252Z,79.48
2022-12-13T03:56:01.901Z,79.50
2022-12-13T03:58:36.640Z,79.12
2022-12-13T04:01:09.836Z,80.16
2022-12-13T04:03:38.239Z,79.79
2022-12-13T04:06:06.037Z,79.29
2022-12-13T04:08:34.496Z,79.60
2022-12-13T04:11:02.459Z,79.59
2022-12-13T04:13:29.232Z,79.81
2022-12-13T04:15:56.043Z,80.06
2022-12-13T04:18:23.035Z,79.79
2022-12-13T04:20:49.913Z,80.32
2022-12-13T04:23:16.817Z,79.97
2022-12-13T04:25:44.935Z,80.26
2022-12-13T04:28:11.843Z,80.45
2022-12-13T04:30:53.216Z,81.29
2022-12-13T04:33:24.732Z,80.80
2022-12-13T04:35:52.185Z,81.38
2022-12-13T04:38:20.077Z,80.38
2022-12-13T04:40:46.965Z,81.14
2022-12-13T04:43:13.825Z,81.26
2022-12-13T04:45:41.094Z,81.26
2022-12-13T04:48:08.246Z,81.59
2022-12-13T04:50:36.880Z,81.68
2022-12-13T04:53:04.009Z,81.36
2022-12-13T04:55:30.809Z,82.30
2022-12-13T04:57:57.790Z,82.47
2022-12-13T05:00:24.686Z,81.62
2022-12-13T05:02:51.650Z,81.26
2022-12-13T05:05:19.047Z,81.10
2022-12-13T05:07:46.273Z,81.76
2022-12-13T05:10:32.177Z,81.42
2022-12-13T05:13:01.142Z,82.30
2022-12-13T05:15:29.050Z,82.12
2022-12-13T05:18:00.397Z,82.60
2022-12-13T05:20:27.352Z,81.88
2022-12-13T05:22:57.111Z,82.38
2022-12-13T05:25:25.978Z,81.61
2022-12-13T05:27:56.989Z,82.52
2022-12-13T05:30:24.054Z,82.58
2022-12-13T05:32:50.772Z,81.18
2022-12-13T05:35:23.621Z,82.70
2022-12-13T05:37:54.026Z,82.69
2022-12-13T05:40:24.022Z,82.20
2022-12-13T05:42:51.033Z,81.58
2022-12-13T05:45:19.750Z,81.58
2022-12-13T05:47:47.444Z,81.57
2022-12-13T05:50:15.931Z,82.20
2022-12-13T05:52:44.950Z,81.49
2022-12-13T05:55:12.574Z,81.83
2022-12-13T05:57:39.572Z,82.68
2022-12-13T06:00:30.079Z,82.57
2022-12-13T06:02:55.747Z,82.58
2022-12-13T06:05:22.597Z,82.34
2022-12-13T06:07:55.112Z,82.59
2022-12-13T06:10:24.086Z,82.58
2022-12-13T06:12:50.855Z,82.76
2022-12-13T06:15:22.318Z,82.33
2022-12-13T06:17:49.758Z,82.95
2022-12-13T06:20:23.695Z,83.13
2022-12-13T06:22:54.606Z,82.54
2022-12-13T06:25:30.994Z,83.18
2022-12-13T06:28:01.064Z,83.20
2022-12-13T06:30:32.068Z,82.80
2022-12-13T06:32:58.931Z,83.89
2022-12-13T06:35:28.988Z,83.48
2022-12-13T06:38:01.593Z,83.23
2022-12-13T06:40:32.819Z,84.23
2022-12-13T06:42:59.940Z,84.07
2022-12-13T06:45:26.916Z,83.92
2022-12-13T06:47:53.751Z,83.43
2022-12-13T06:50:20.622Z,83.56
2022-12-13T06:52:47.431Z,83.24
2022-12-13T06:55:14.834Z,84.03
2022-12-13T06:57:50.549Z,84.39
2022-12-13T07:00:22.253Z,83.81
2022-12-13T07:02:56.351Z,84.33
2022-12-13T07:05:23.893Z,84.22
2022-12-13T07:07:50.900Z,84.17
2022-12-13T07:10:22.442Z,84.35
2022-12-13T07:12:50.243Z,84.50
2022-12-13T07:15:17.239Z,83.52
2022-12-13T07:17:44.317Z,83.88
2022-12-13T07:20:12.376Z,84.31
2022-12-13T07:22:46.760Z,84.34
2022-12-13T07:25:27.683Z,85.05
2022-12-13T07:28:02.153Z,85.05
2022-12-13T07:30:46.117Z,85.13
2022-12-13T07:33:22.184Z,85.57
2022-12-13T07:35:55.371Z,85.80
2022-12-13T07:38:22.517Z,85.79
2022-12-13T07:40:49.480Z,85.47
2022-12-13T07:43:16.582Z,86.07
2022-12-13T07:45:43.647Z,85.38
2022-12-13T07:48:10.547Z,84.60
2022-12-13T07:50:38.022Z,84.88
2022-12-13T07:53:07.139Z,84.75
2022-12-13T07:55:34.756Z,85.20
2022-12-13T07:58:07.976Z,85.03
2022-12-13T08:00:35.683Z,84.99
2022-12-13T08:03:02.630Z,84.85
2022-12-13T08:05:38.192Z,84.34
2022-12-13T08:08:08.906Z,84.52
2022-12-13T08:10:36.510Z,83.97
2022-12-13T08:13:03.506Z,84.19
2022-12-13T08:15:30.681Z,84.03
2022-12-13T08:17:58.589Z,83.49
2022-12-13T08:20:25.341Z,83.56
2022-12-13T08:23:02.253Z,82.72
2022-12-13T08:25:31.159Z,82.69
2022-12-13T08:28:02.069Z,82.55
2022-12-13T08:30:32.358Z,82.48
2022-12-13T08:32:59.525Z,82.37
2022-12-13T08:35:34.507Z,82.16
2022-12-13T08:38:03.399Z,82.16
2022-12-13T08:40:30.206Z,81.89
2022-12-13T08:42:56.914Z,81.44
2022-12-13T08:45:24.033Z,81.27
2022-12-13T08:47:50.904Z,81.48
2022-12-13T08:50:17.857Z,80.90
2022-12-13T08:52:44.738Z,81.24
2022-12-13T08:55:13.364Z,81.37
2022-12-13T08:57:41.819Z,81.35
2022-12-13T09:00:12.396Z,81.41
2022-12-13T09:02:40.097Z,81.61
2022-12-13T09:05:08.640Z,81.26
2022-12-13T09:07:36.849Z,81.32
2022-12-13T09:10:07.042Z,81.58
2022-12-13T09:12:54.133Z,81.42
2022-12-13T09:15:33.739Z,81.00
2022-12-13T09:18:04.854Z,80.32
2022-12-13T09:20:40.525Z,79.98
2022-12-13T09:23:13.972Z,79.54
2022-12-13T09:26:05.354Z,79.56
2022-12-13T09:28:34.581Z,80.29
2022-12-13T09:31:02.133Z,80.02
2022-12-13T09:33:30.647Z,79.72
2022-12-13T09:36:01.248Z,80.02
2022-12-13T09:38:28.748Z,79.33
2022-12-13T09:40:59.705Z,79.12
2022-12-13T09:43:33.806Z,78.72
2022-12-13T09:46:22.554Z,78.01
2022-12-13T09:48:53.116Z,78.43
2022-12-13T09:51:44.794Z,78.20
2022-12-13T09:54:20.358Z,77.64
2022-12-13T09:56:48.557Z,77.14
2022-12-13T09:59:21.812Z,76.88
2022-12-13T10:01:51.454Z,77.07
2022-12-13T10:04:18.861Z,76.63
2022-12-13T10:06:45.701Z,76.40
2022-12-13T10:09:14.152Z,76.05
2022-12-13T10:11:51.994Z,75.54
2022-12-13T10:14:27.774Z,75.80
2022-12-13T10:16:57.963Z,74.98
2022-12-13T10:19:34.079Z,74.28
2022-12-13T10:22:02.971Z,74.45
2022-12-13T10:24:59.453Z,74.81
2022-12-13T10:27:26.117Z,73.91
2022-12-13T10:30:04.118Z,74.92
2022-12-13T10:32:37.659Z,73.50
2022-12-13T10:35:26.474Z,74.53
2022-12-13T10:37:54.648Z,74.25
2022-12-13T10:40:40.095Z,73.86
2022-12-13T10:43:17.599Z,73.57
2022-12-13T10:45:57.937Z,74.12
2022-12-13T10:48:41.657Z,73.54
2022-12-13T10:51:17.200Z,74.15
2022-12-13T10:53:54.955Z,74.91
2022-12-13T10:56:32.818Z,74.07
2022-12-13T10:59:18.361Z,73.79
2022-12-13T11:01:45.333Z,73.95
2022-12-13T11:04:35.142Z,74.75
2022-12-13T11:07:27.684Z,74.30
2022-12-13T11:09:54.414Z,73.60
2022-12-13T11:12:24.755Z,74.18
2022-12-13T11:15:01.523Z,72.93
2022-12-13T11:17:30.803Z,73.47
2022-12-13T11:20:02.685Z,73.31
2022-12-13T11:22:32.224Z,72.74
2022-12-13T11:25:07.548Z,72.55
2022-12-13T11:27:37.055Z,73.02
2022-12-13T11:30:20.029Z,73.04
2022-12-13T11:32:51.665Z,72.25
2022-12-13T11:35:30.567Z,72.46
2022-12-13T11:38:16.267Z,71.85
2022-12-13T11:40:53.640Z,71.72
2022-12-13T11:43:29.323Z,71.73
2022-12-13T11:46:00.222Z,71.91
2022-12-13T11:48:45.416Z,71.32
2022-12-13T11:51:15.808Z,72.13
2022-12-13T11:53:56.827Z,71.71
2022-12-13T11:56:41.820Z,71.05
2022-12-13T11:59:19.008Z,70.33
2022-12-13T12:01:53.964Z,70.56
2022-12-13T12:04:35.184Z,70.29
2022-12-13T12:07:30.603Z,69.87
2022-12-13T12:10:01.615Z,70.49
2022-12-13T12:12:37.415Z,70.16
2022-12-13T12:15:15.834Z,69.91
2022-12-13T12:17:43.864Z,69.97
2022-12-13T12:20:23.846Z,69.87
2022-12-13T12:23:20.233Z,70.09
2022-12-13T12:25:55.833Z,70.03
2022-12-13T12:28:54.320Z,69.87
2022-12-13T12:31:31.220Z,70.25
2022-12-13T12:34:12.764Z,70.20
2022-12-13T12:36:56.223Z,70.25
2022-12-13T12:39:54.802Z,69.75
2022-12-13T12:42:24.558Z,70.44
2022-12-13T12:44:51.296Z,70.80
2022-12-13T12:48:29.713Z,70.20
2022-12-13T12:50:43.584Z,70.47
2022-12-13T12:53:42.500Z,69.79
2022-12-13T12:56:25.092Z,70.21
2022-12-13T12:58:54.474Z,70.36
2022-12-13T13:01:49.269Z,69.56
2022-12-13T13:04:22.733Z,70.27
2022-12-13T13:07:01.772Z,70.40
2022-12-13T13:09:30.682Z,70.61
2022-12-13T13:11:58.898Z,70.53
2022-12-13T13:14:28.565Z,70.37
2022-12-13T13:16:56.033Z,70.40
2022-12-13T13:19:31.768Z,70.40
2022-12-13T13:22:02.544Z,69.17
2022-12-13T13:24:32.213Z,69.19
2022-12-13T13:27:09.630Z,69.63
2022-12-13T13:29:43.296Z,68.91
2022-12-13T13:32:10.908Z,68.44
2022-12-13T13:34:39.437Z,68.73
2022-12-13T13:37:23.077Z,68.37
2022-12-13T13:40:31.380Z,67.60
2022-12-13T13:43:10.649Z,68.41
2022-12-13T13:45:49.323Z,68.53
2022-12-13T13:48:34.573Z,69.16
2022-12-13T13:51:07.153Z,68.76
2022-12-13T13:53:54.392Z,68.72
2022-12-13T13:56:40.383Z,69.40
2022-12-13T13:59:24.193Z,68.61
2022-12-13T14:02:13.257Z,68.89
2022-12-13T14:05:17.731Z,69.12
2022-12-13T14:08:21.916Z,69.37
2022-12-13T14:11:01.781Z,68.60
2022-12-13T14:13:44.616Z,68.84
2022-12-13T14:16:52.045Z,68.55
2022-12-13T14:19:27.768Z,68.94
2022-12-13T14:22:39.629Z,68.89
2022-12-13T14:25:24.795Z,69.12
2022-12-13T14:28:17.642Z,69.44
2022-12-13T14:30:57.531Z,69.85
2022-12-13T14:33:27.097Z,69.56
2022-12-13T14:35:55.628Z,69.88
2022-12-13T14:38:28.555Z,69.80
2022-12-13T14:41:05.298Z,70.21
2022-12-13T14:43:34.360Z,70.13
2022-12-13T14:46:04.258Z,70.17
2022-12-13T14:48:57.240Z,69.88
2022-12-13T14:51:32.272Z,70.32
2022-12-13T14:54:00.874Z,70.35
2022-12-13T14:56:29.157Z,70.00
2022-12-13T14:59:02.366Z,70.23
2022-12-13T15:01:32.322Z,70.28
2022-12-13T15:04:21.128Z,70.46
2022-12-13T15:06:55.237Z,70.68
2022-12-13T15:09:24.317Z,70.82
2022-12-13T15:12:14.624Z,70.64
2022-12-13T15:15:09.555Z,70.59
2022-12-13T15:17:39.312Z,70.92
2022-12-13T15:20:31.348Z,70.77
2022-12-13T15:23:13.493Z,70.70
2022-12-13T15:25:42.994Z,70.66
2022-12-13T15:28:18.192Z,70.95
2022-12-13T15:30:47.538Z,70.67
2022-12-13T15:33:22.899Z,70.84
2022-12-13T15:36:27.993Z,70.74
2022-12-13T15:38:54.749Z,71.56
2022-12-13T15:41:27.943Z,71.17
2022-12-13T15:44:07.896Z,71.29
2022-12-13T15:46:37.421Z,71.48
2022-12-13T15:49:06.264Z,71.55
2022-12-13T15:51:33.063Z,71.57
2022-12-13T15:54:10.092Z,71.30
2022-12-13T15:56:39.773Z,71.17
2022-12-13T15:59:26.375Z,71.68
2022-12-13T16:01:58.241Z,71.54
2022-12-13T16:04:29.160Z,72.15
2022-12-13T16:06:56.902Z,71.91
2022-12-13T16:09:27.752Z,72.57
2022-12-13T16:12:00.234Z,72.06
2022-12-13T16:14:49.281Z,72.63
2022-12-13T16:17:24.660Z,72.65
2022-12-13T16:19:53.192Z,72.70
2022-12-13T16:22:20.363Z,72.67
2022-12-13T16:24:51.507Z,72.72
2022-12-13T16:27:19.683Z,73.15
2022-12-13T16:29:46.561Z,72.32
2022-12-13T16:32:13.478Z,72.94
2022-12-13T16:34:40.652Z,73.36
2022-12-13T16:37:26.361Z,73.20
2022-12-13T16:39:55.558Z,73.63
2022-12-13T16:42:26.557Z,73.06
2022-12-13T16:45:11.271Z,73.36
2022-12-13T16:47:48.312Z,73.51
2022-12-13T16:50:19.553Z,73.69
2022-12-13T16:52:47.024Z,74.07
2022-12-13T16:55:14.435Z,73.37
2022-12-13T16:57:41.821Z,73.31
2022-12-13T17:00:12.984Z,73.49
2022-12-13T17:02:41.453Z,74.14
2022-12-13T17:05:09.826Z,74.06
2022-12-13T17:07:37.249Z,74.10
2022-12-13T17:10:04.762Z,74.04
2022-12-13T17:12:32.104Z,73.74
2022-12-13T17:14:59.818Z,73.82
2022-12-13T17:17:27.784Z,73.83
2022-12-13T17:19:55.384Z,73.88
2022-12-13T17:22:23.209Z,74.48
2022-12-13T17:24:50.389Z,74.18
2022-12-13T17:27:17.913Z,74.37
2022-12-13T17:29:45.140Z,74.82
2022-12-13T17:32:13.221Z,74.28
2022-12-13T17:34:40.650Z,75.52
2022-12-13T17:37:10.623Z,74.65
2022-12-13T17:39:38.118Z,75.00
2022-12-13T17:42:05.428Z,74.77
2022-12-13T17:44:32.855Z,74.91
2022-12-13T17:47:00.090Z,75.02
2022-12-13T17:49:28.752Z,75.10
2022-12-13T17:51:56.752Z,75.47
2022-12-13T17:54:25.679Z,74.47
2022-12-13T17:56:54.085Z,74.93
2022-12-13T17:59:22.426Z,74.89
2022-12-13T18:01:52.073Z,74.47
2022-12-13T18:04:19.934Z,74.72
2022-12-13T18:06:47.182Z,74.90
2022-12-13T18:09:14.829Z,75.99
2022-12-13T18:11:42.530Z,74.95
2022-12-13T18:14:11.011Z,74.93
2022-12-13T18:16:39.241Z,76.14
2022-12-13T18:19:08.340Z,75.52
2022-12-13T18:21:36.708Z,75.69
2022-12-13T18:24:05.339Z,75.33
2022-12-13T18:26:33.494Z,76.32
2022-12-13T18:29:01.241Z,75.40
2022-12-13T18:31:29.421Z,76.27
2022-12-13T18:33:56.801Z,76.69
2022-12-13T18:36:26.551Z,76.02
2022-12-13T18:38:54.452Z,75.67
2022-12-13T18:41:24.849Z,76.35
2022-12-13T18:44:00.186Z,75.86
2022-12-13T18:46:35.235Z,75.76
2022-12-13T18:49:04.192Z,75.48
2022-12-13T18:51:32.026Z,76.17
2022-12-13T18:54:00.913Z,75.37
2022-12-13T18:56:28.784Z,76.50
2022-12-13T18:58:58.006Z,77.04
2022-12-13T19:01:25.874Z,76.61
2022-12-13T19:03:53.885Z,76.68
2022-12-13T19:06:26.884Z,77.54
2022-12-13T19:08:57.319Z,77.21
2022-12-13T19:11:27.945Z,77.24
2022-12-13T19:13:56.758Z,77.23
2022-12-13T19:16:26.975Z,76.96
2022-12-13T19:18:55.346Z,78.44
2022-12-13T19:21:25.843Z,77.78
2022-12-13T19:23:57.840Z,78.19
2022-12-13T19:26:29.938Z,78.94
2022-12-13T19:28:59.203Z,78.15
2022-12-13T19:31:32.818Z,79.04
2022-12-13T19:34:02.841Z,79.30
2022-12-13T19:36:33.482Z,78.32
2022-12-13T19:39:01.723Z,78.83
2022-12-13T19:41:30.133Z,78.92
2022-12-13T19:43:58.079Z,79.22
2022-12-13T19:46:26.789Z,79.60
2022-12-13T19:48:55.981Z,78.32
2022-12-13T19:51:24.326Z,78.82
2022-12-13T19:53:52.681Z,78.98
2022-12-13T19:56:25.974Z,79.50
2022-12-13T19:58:57.056Z,79.08
2022-12-13T20:01:27.030Z,78.88
2022-12-13T20:03:57.256Z,78.81
2022-12-13T20:06:25.489Z,79.74
2022-12-13T20:08:53.138Z,80.06
2022-12-13T20:11:23.405Z,79.67
2022-12-13T20:13:54.982Z,80.11
2022-12-13T20:16:26.160Z,79.72
2022-12-13T20:19:00.053Z,80.33
2022-12-13T20:21:30.608Z,79.57
2022-12-13T20:23:58.212Z,80.23
2022-12-13T20:26:29.148Z,80.39
2022-12-13T20:28:57.483Z,80.13
2022-12-13T20:31:29.839Z,80.21
2022-12-13T20:34:02.931Z,80.23
2022-12-13T20:36:32.400Z,80.51
2022-12-13T20:39:04.282Z,80.31
2022-12-13T20:41:34.876Z,80.73
2022-12-13T20:44:06.328Z,80.37
2022-12-13T20:46:34.429Z,80.65
2022-12-13T20:49:05.612Z,81.04
2022-12-13T20:51:34.975Z,81.18
2022-12-13T20:54:03.959Z,80.83
2022-12-13T20:56:33.907Z,80.10
2022-12-13T20:59:03.985Z,80.59
2022-12-13T21:01:33.731Z,80.04
2022-12-13T21:04:04.218Z,80.07
2022-12-13T21:06:33.879Z,81.14
2022-12-13T21:09:01.116Z,81.27
2022-12-13T21:11:37.457Z,81.02
2022-12-13T21:14:21.285Z,81.30
2022-12-13T21:16:54.520Z,81.39
2022-12-13T21:19:33.095Z,80.68
2022-12-13T21:22:03.180Z,81.14
2022-12-13T21:24:30.241Z,81.36
2022-12-13T21:26:57.358Z,81.43
2022-12-13T21:29:24.849Z,81.46
2022-12-13T21:31:51.829Z,81.52
2022-12-13T21:34:19.874Z,80.53
2022-12-13T21:36:48.713Z,80.71
2022-12-13T21:39:19.316Z,80.69
2022-12-13T21:41:46.671Z,80.56
2022-12-13T21:44:15.959Z,81.17
2022-12-13T21:49:30.188Z,80.78
2022-12-13T21:51:57.232Z,81.15
2022-12-13T21:54:24.030Z,80.65
2022-12-13T21:56:51.007Z,81.69
2022-12-13T21:59:26.002Z,81.52
2022-12-13T22:02:00.255Z,80.79
2022-12-13T22:04:27.046Z,80.77
2022-12-13T22:06:54.109Z,81.27
2022-12-13T22:09:20.880Z,80.88
2022-12-13T22:11:47.657Z,80.72
2022-12-13T22:14:14.364Z,81.21
2022-12-13T22:16:41.416Z,81.08
2022-12-13T22:19:08.344Z,81.28
2022-12-13T22:21:35.124Z,81.04
2022-12-13T22:24:01.962Z,81.08
2022-12-13T22:26:28.765Z,81.93
2022-12-13T22:28:57.919Z,81.90
2022-12-13T22:31:29.703Z,81.96
2022-12-13T22:33:56.808Z,82.38
2022-12-13T22:36:24.675Z,82.11
2022-12-13T22:38:51.888Z,82.30
2022-12-13T22:41:18.980Z,82.11
2022-12-13T22:43:46.310Z,81.94
2022-12-13T22:46:18.397Z,81.91
2022-12-13T22:48:46.038Z,82.12
2022-12-13T22:51:15.594Z,81.57
2022-12-13T22:53:44.262Z,81.62
2022-12-13T22:56:12.066Z,82.26
2022-12-13T22:58:41.111Z,82.21
2022-12-13T23:01:17.122Z,82.17
2022-12-13T23:03:44.580Z,82.40
2022-12-13T23:06:24.639Z,82.91
2022-12-13T23:08:55.133Z,83.03
2022-12-13T23:11:23.121Z,82.88
2022-12-13T23:13:54.461Z,83.36
2022-12-13T23:16:22.770Z,83.45
2022-12-13T23:18:49.843Z,83.27
2022-12-13T23:21:17.731Z,83.08
2022-12-13T23:23:44.844Z,83.11
2022-12-13T23:26:16.214Z,83.47
2022-12-13T23:28:44.583Z,83.51
2022-12-13T23:31:12.596Z,83.15
2022-12-13T23:33:41.061Z,83.47
2022-12-13T23:36:11.046Z,82.64
2022-12-13T23:38:37.904Z,82.68
2022-12-13T23:41:07.145Z,83.12
2022-12-13T23:43:34.516Z,83.26
2022-12-13T23:46:04.797Z,83.05
2022-12-13T23:48:32.080Z,82.75
2022-12-13T23:50:59.299Z,82.70
2022-12-13T23:53:26.121Z,82.91
2022-12-13T23:55:52.928Z,82.68
2022-12-13T23:58:21.460Z,82.64
